sensor_id;sensor_type;location;lat;lon;timestamp;P1;durP1;ratioP1;P2;durP2;ratioP2
25331;SDS011;13284;52.748;13.452;2023-04-24T00:00:14;5.83;;;4.00;;
25331;SDS011;13284;52.748;13.452;2023-04-24T00:02:43;4.87;;;4.10;;
25331;SDS011;13284;52.748;13.452;2023-04-24T00:05:12;4.20;;;3.80;;
25331;SDS011;13284;52.748;13.452;2023-04-24T00:07:38;3.90;;;3.40;;
25331;SDS011;13284;52.748;13.452;2023-04-24T00:10:05;4.40;;;3.90;;
25331;SDS011;13284;52.748;13.452;2023-04-24T00:12:31;3.93;;;3.63;;
25331;SDS011;13284;52.748;13.452;2023-04-24T00:14:57;4.37;;;3.70;;
25331;SDS011;13284;52.748;13.452;2023-04-24T00:17:22;4.40;;;4.00;;
25331;SDS011;13284;52.748;13.452;2023-04-24T00:19:48;6.00;;;3.80;;
25331;SDS011;13284;52.748;13.452;2023-04-24T00:22:16;4.40;;;4.00;;
25331;SDS011;13284;52.748;13.452;2023-04-24T00:24:42;4.03;;;3.73;;
25331;SDS011;13284;52.748;13.452;2023-04-24T00:27:07;4.87;;;3.80;;
25331;SDS011;13284;52.748;13.452;2023-04-24T00:29:33;4.40;;;4.00;;
25331;SDS011;13284;52.748;13.452;2023-04-24T00:31:59;4.40;;;4.00;;
25331;SDS011;13284;52.748;13.452;2023-04-24T00:34:25;4.27;;;3.87;;
25331;SDS011;13284;52.748;13.452;2023-04-24T00:36:51;5.00;;;4.30;;
25331;SDS011;13284;52.748;13.452;2023-04-24T00:39:20;5.77;;;4.33;;
25331;SDS011;13284;52.748;13.452;2023-04-24T00:41:46;4.33;;;4.03;;
25331;SDS011;13284;52.748;13.452;2023-04-24T00:44:13;4.57;;;4.00;;
25331;SDS011;13284;52.748;13.452;2023-04-24T00:46:39;5.10;;;3.60;;
25331;SDS011;13284;52.748;13.452;2023-04-24T00:49:05;4.70;;;4.30;;
25331;SDS011;13284;52.748;13.452;2023-04-24T00:51:31;4.40;;;4.00;;
25331;SDS011;13284;52.748;13.452;2023-04-24T00:53:57;5.30;;;4.60;;
25331;SDS011;13284;52.748;13.452;2023-04-24T00:56:23;3.83;;;3.53;;
25331;SDS011;13284;52.748;13.452;2023-04-24T00:58:49;4.77;;;3.83;;
25331;SDS011;13284;52.748;13.452;2023-04-24T01:01:15;5.23;;;3.90;;
25331;SDS011;13284;52.748;13.452;2023-04-24T01:03:41;4.60;;;4.20;;
25331;SDS011;13284;52.748;13.452;2023-04-24T01:06:07;6.27;;;4.40;;
25331;SDS011;13284;52.748;13.452;2023-04-24T01:08:34;6.10;;;4.30;;
25331;SDS011;13284;52.748;13.452;2023-04-24T01:11:00;4.90;;;4.37;;
25331;SDS011;13284;52.748;13.452;2023-04-24T01:13:28;4.87;;;4.40;;
25331;SDS011;13284;52.748;13.452;2023-04-24T01:15:54;4.83;;;4.43;;
25331;SDS011;13284;52.748;13.452;2023-04-24T01:18:19;4.97;;;4.57;;
25331;SDS011;13284;52.748;13.452;2023-04-24T01:20:46;6.00;;;4.50;;
25331;SDS011;13284;52.748;13.452;2023-04-24T01:23:15;6.17;;;5.47;;
25331;SDS011;13284;52.748;13.452;2023-04-24T01:25:41;6.60;;;4.83;;
25331;SDS011;13284;52.748;13.452;2023-04-24T01:28:06;5.30;;;4.80;;
25331;SDS011;13284;52.748;13.452;2023-04-24T01:30:32;6.07;;;4.80;;
25331;SDS011;13284;52.748;13.452;2023-04-24T01:32:58;5.83;;;4.90;;
25331;SDS011;13284;52.748;13.452;2023-04-24T01:35:24;5.50;;;4.90;;
25331;SDS011;13284;52.748;13.452;2023-04-24T01:37:50;7.60;;;5.23;;
25331;SDS011;13284;52.748;13.452;2023-04-24T01:40:15;5.53;;;4.67;;
25331;SDS011;13284;52.748;13.452;2023-04-24T01:42:41;4.77;;;4.27;;
25331;SDS011;13284;52.748;13.452;2023-04-24T01:45:07;7.67;;;4.93;;
25331;SDS011;13284;52.748;13.452;2023-04-24T01:47:35;5.63;;;5.13;;
25331;SDS011;13284;52.748;13.452;2023-04-24T01:50:00;5.73;;;4.87;;
25331;SDS011;13284;52.748;13.452;2023-04-24T01:52:26;6.10;;;5.20;;
25331;SDS011;13284;52.748;13.452;2023-04-24T01:54:53;5.10;;;4.67;;
25331;SDS011;13284;52.748;13.452;2023-04-24T01:57:20;6.10;;;5.50;;
25331;SDS011;13284;52.748;13.452;2023-04-24T01:59:46;7.40;;;5.67;;
25331;SDS011;13284;52.748;13.452;2023-04-24T02:02:11;6.60;;;4.93;;
25331;SDS011;13284;52.748;13.452;2023-04-24T02:04:37;7.53;;;5.57;;
25331;SDS011;13284;52.748;13.452;2023-04-24T02:07:02;5.70;;;5.10;;
25331;SDS011;13284;52.748;13.452;2023-04-24T02:09:28;5.37;;;4.87;;
25331;SDS011;13284;52.748;13.452;2023-04-24T02:11:53;5.13;;;4.63;;
25331;SDS011;13284;52.748;13.452;2023-04-24T02:14:25;5.90;;;5.17;;
25331;SDS011;13284;52.748;13.452;2023-04-24T02:16:51;5.87;;;5.27;;
25331;SDS011;13284;52.748;13.452;2023-04-24T02:19:16;6.17;;;5.57;;
25331;SDS011;13284;52.748;13.452;2023-04-24T02:21:42;6.60;;;5.87;;
25331;SDS011;13284;52.748;13.452;2023-04-24T02:24:07;4.97;;;4.57;;
25331;SDS011;13284;52.748;13.452;2023-04-24T02:26:33;5.10;;;4.60;;
25331;SDS011;13284;52.748;13.452;2023-04-24T02:28:58;5.57;;;5.00;;
25331;SDS011;13284;52.748;13.452;2023-04-24T02:31:24;6.40;;;5.10;;
25331;SDS011;13284;52.748;13.452;2023-04-24T02:33:50;5.90;;;5.20;;
25331;SDS011;13284;52.748;13.452;2023-04-24T02:36:15;7.50;;;5.50;;
25331;SDS011;13284;52.748;13.452;2023-04-24T02:38:41;5.63;;;5.13;;
25331;SDS011;13284;52.748;13.452;2023-04-24T02:41:06;6.70;;;5.60;;
25331;SDS011;13284;52.748;13.452;2023-04-24T02:43:32;5.80;;;5.20;;
25331;SDS011;13284;52.748;13.452;2023-04-24T02:45:58;6.47;;;5.87;;
25331;SDS011;13284;52.748;13.452;2023-04-24T02:48:24;6.33;;;5.33;;
25331;SDS011;13284;52.748;13.452;2023-04-24T02:50:49;5.67;;;5.13;;
25331;SDS011;13284;52.748;13.452;2023-04-24T02:53:15;6.90;;;6.20;;
25331;SDS011;13284;52.748;13.452;2023-04-24T02:55:41;6.37;;;5.20;;
25331;SDS011;13284;52.748;13.452;2023-04-24T02:58:07;6.10;;;5.50;;
25331;SDS011;13284;52.748;13.452;2023-04-24T03:00:32;7.10;;;5.73;;
25331;SDS011;13284;52.748;13.452;2023-04-24T03:02:58;6.80;;;5.60;;
25331;SDS011;13284;52.748;13.452;2023-04-24T03:05:23;7.23;;;6.47;;
25331;SDS011;13284;52.748;13.452;2023-04-24T03:07:48;6.57;;;5.97;;
25331;SDS011;13284;52.748;13.452;2023-04-24T03:10:14;7.57;;;5.90;;
25331;SDS011;13284;52.748;13.452;2023-04-24T03:12:40;6.30;;;5.53;;
25331;SDS011;13284;52.748;13.452;2023-04-24T03:15:06;7.03;;;6.33;;
25331;SDS011;13284;52.748;13.452;2023-04-24T03:17:32;6.27;;;5.60;;
25331;SDS011;13284;52.748;13.452;2023-04-24T03:19:57;5.93;;;5.33;;
25331;SDS011;13284;52.748;13.452;2023-04-24T03:22:23;6.37;;;5.70;;
25331;SDS011;13284;52.748;13.452;2023-04-24T03:24:49;6.47;;;5.67;;
25331;SDS011;13284;52.748;13.452;2023-04-24T03:27:14;7.13;;;5.70;;
25331;SDS011;13284;52.748;13.452;2023-04-24T03:29:40;5.93;;;5.33;;
25331;SDS011;13284;52.748;13.452;2023-04-24T03:32:05;6.40;;;5.80;;
25331;SDS011;13284;52.748;13.452;2023-04-24T03:34:31;5.63;;;5.10;;
25331;SDS011;13284;52.748;13.452;2023-04-24T03:36:56;6.50;;;5.37;;
25331;SDS011;13284;52.748;13.452;2023-04-24T03:39:22;6.77;;;5.57;;
25331;SDS011;13284;52.748;13.452;2023-04-24T03:41:47;7.07;;;6.37;;
25331;SDS011;13284;52.748;13.452;2023-04-24T03:44:13;5.40;;;4.90;;
25331;SDS011;13284;52.748;13.452;2023-04-24T03:46:38;8.20;;;6.27;;
25331;SDS011;13284;52.748;13.452;2023-04-24T03:49:04;7.23;;;6.53;;
25331;SDS011;13284;52.748;13.452;2023-04-24T03:51:29;6.00;;;5.40;;
25331;SDS011;13284;52.748;13.452;2023-04-24T03:53:55;7.00;;;6.30;;
25331;SDS011;13284;52.748;13.452;2023-04-24T03:56:21;6.10;;;5.50;;
25331;SDS011;13284;52.748;13.452;2023-04-24T03:58:46;8.50;;;6.30;;
25331;SDS011;13284;52.748;13.452;2023-04-24T04:01:12;7.50;;;6.50;;
25331;SDS011;13284;52.748;13.452;2023-04-24T04:03:38;8.10;;;5.87;;
25331;SDS011;13284;52.748;13.452;2023-04-24T04:06:03;8.40;;;5.80;;
25331;SDS011;13284;52.748;13.452;2023-04-24T04:08:29;6.50;;;5.70;;
25331;SDS011;13284;52.748;13.452;2023-04-24T04:10:55;6.43;;;5.80;;
25331;SDS011;13284;52.748;13.452;2023-04-24T04:13:20;6.90;;;6.30;;
25331;SDS011;13284;52.748;13.452;2023-04-24T04:15:46;8.93;;;7.10;;
25331;SDS011;13284;52.748;13.452;2023-04-24T04:18:11;10.00;;;6.17;;
25331;SDS011;13284;52.748;13.452;2023-04-24T04:20:37;6.63;;;6.00;;
25331;SDS011;13284;52.748;13.452;2023-04-24T04:23:02;8.70;;;6.63;;
25331;SDS011;13284;52.748;13.452;2023-04-24T04:25:28;7.37;;;6.57;;
25331;SDS011;13284;52.748;13.452;2023-04-24T04:27:54;8.30;;;6.97;;
25331;SDS011;13284;52.748;13.452;2023-04-24T04:30:19;6.87;;;6.20;;
25331;SDS011;13284;52.748;13.452;2023-04-24T04:32:45;7.27;;;6.30;;
25331;SDS011;13284;52.748;13.452;2023-04-24T04:35:11;7.87;;;5.73;;
25331;SDS011;13284;52.748;13.452;2023-04-24T04:37:37;8.40;;;6.60;;
25331;SDS011;13284;52.748;13.452;2023-04-24T04:40:03;7.33;;;6.63;;
25331;SDS011;13284;52.748;13.452;2023-04-24T04:42:31;8.03;;;6.07;;
25331;SDS011;13284;52.748;13.452;2023-04-24T04:44:59;6.37;;;5.70;;
25331;SDS011;13284;52.748;13.452;2023-04-24T04:47:25;6.53;;;5.60;;
25331;SDS011;13284;52.748;13.452;2023-04-24T04:49:51;7.70;;;6.50;;
25331;SDS011;13284;52.748;13.452;2023-04-24T04:52:17;7.10;;;6.10;;
25331;SDS011;13284;52.748;13.452;2023-04-24T04:54:43;6.73;;;5.73;;
25331;SDS011;13284;52.748;13.452;2023-04-24T04:57:08;12.13;;;6.40;;
25331;SDS011;13284;52.748;13.452;2023-04-24T04:59:35;6.47;;;5.87;;
25331;SDS011;13284;52.748;13.452;2023-04-24T05:02:00;7.87;;;6.70;;
25331;SDS011;13284;52.748;13.452;2023-04-24T05:04:26;7.80;;;6.67;;
25331;SDS011;13284;52.748;13.452;2023-04-24T05:06:52;7.70;;;6.33;;
25331;SDS011;13284;52.748;13.452;2023-04-24T05:09:17;8.67;;;5.97;;
25331;SDS011;13284;52.748;13.452;2023-04-24T05:11:43;7.13;;;6.10;;
25331;SDS011;13284;52.748;13.452;2023-04-24T05:14:09;10.13;;;6.30;;
25331;SDS011;13284;52.748;13.452;2023-04-24T05:16:34;7.60;;;6.13;;
25331;SDS011;13284;52.748;13.452;2023-04-24T05:19:01;7.20;;;6.33;;
25331;SDS011;13284;52.748;13.452;2023-04-24T05:21:27;6.37;;;5.73;;
25331;SDS011;13284;52.748;13.452;2023-04-24T05:23:53;6.23;;;5.63;;
25331;SDS011;13284;52.748;13.452;2023-04-24T05:26:18;6.60;;;5.47;;
25331;SDS011;13284;52.748;13.452;2023-04-24T05:28:44;5.77;;;5.17;;
25331;SDS011;13284;52.748;13.452;2023-04-24T05:31:10;6.03;;;5.43;;
25331;SDS011;13284;52.748;13.452;2023-04-24T05:33:35;6.00;;;5.30;;
25331;SDS011;13284;52.748;13.452;2023-04-24T05:36:01;5.87;;;5.03;;
25331;SDS011;13284;52.748;13.452;2023-04-24T05:38:26;6.03;;;5.37;;
25331;SDS011;13284;52.748;13.452;2023-04-24T05:40:52;6.57;;;5.97;;
25331;SDS011;13284;52.748;13.452;2023-04-24T05:43:18;7.93;;;5.40;;
25331;SDS011;13284;52.748;13.452;2023-04-24T05:45:43;8.27;;;5.33;;
25331;SDS011;13284;52.748;13.452;2023-04-24T05:48:09;6.03;;;4.90;;
25331;SDS011;13284;52.748;13.452;2023-04-24T05:50:34;6.40;;;5.77;;
25331;SDS011;13284;52.748;13.452;2023-04-24T05:53:00;5.53;;;5.03;;
25331;SDS011;13284;52.748;13.452;2023-04-24T05:55:27;5.90;;;5.17;;
25331;SDS011;13284;52.748;13.452;2023-04-24T05:57:52;5.10;;;4.60;;
25331;SDS011;13284;52.748;13.452;2023-04-24T06:00:18;4.63;;;4.23;;
25331;SDS011;13284;52.748;13.452;2023-04-24T06:02:45;4.67;;;4.10;;
25331;SDS011;13284;52.748;13.452;2023-04-24T06:05:11;5.07;;;4.57;;
25331;SDS011;13284;52.748;13.452;2023-04-24T06:07:36;4.40;;;4.00;;
25331;SDS011;13284;52.748;13.452;2023-04-24T06:10:02;4.30;;;3.90;;
25331;SDS011;13284;52.748;13.452;2023-04-24T06:12:28;3.93;;;3.57;;
25331;SDS011;13284;52.748;13.452;2023-04-24T06:14:53;4.97;;;3.30;;
25331;SDS011;13284;52.748;13.452;2023-04-24T06:17:20;3.77;;;3.47;;
25331;SDS011;13284;52.748;13.452;2023-04-24T06:19:46;4.00;;;3.60;;
25331;SDS011;13284;52.748;13.452;2023-04-24T06:22:11;4.43;;;3.83;;
25331;SDS011;13284;52.748;13.452;2023-04-24T06:24:37;3.80;;;3.27;;
25331;SDS011;13284;52.748;13.452;2023-04-24T06:27:02;3.60;;;3.20;;
25331;SDS011;13284;52.748;13.452;2023-04-24T06:29:28;3.90;;;3.57;;
25331;SDS011;13284;52.748;13.452;2023-04-24T06:31:54;3.10;;;2.80;;
25331;SDS011;13284;52.748;13.452;2023-04-24T06:34:19;3.43;;;3.10;;
25331;SDS011;13284;52.748;13.452;2023-04-24T06:36:46;2.83;;;2.63;;
25331;SDS011;13284;52.748;13.452;2023-04-24T06:39:11;3.53;;;3.23;;
25331;SDS011;13284;52.748;13.452;2023-04-24T06:41:37;3.00;;;2.70;;
25331;SDS011;13284;52.748;13.452;2023-04-24T06:44:03;3.30;;;2.63;;
25331;SDS011;13284;52.748;13.452;2023-04-24T06:46:28;5.10;;;3.40;;
25331;SDS011;13284;52.748;13.452;2023-04-24T06:48:54;3.70;;;2.70;;
25331;SDS011;13284;52.748;13.452;2023-04-24T06:51:23;4.20;;;3.10;;
25331;SDS011;13284;52.748;13.452;2023-04-24T06:53:49;3.20;;;2.80;;
25331;SDS011;13284;52.748;13.452;2023-04-24T06:56:15;3.77;;;2.50;;
25331;SDS011;13284;52.748;13.452;2023-04-24T06:58:40;3.73;;;2.30;;
25331;SDS011;13284;52.748;13.452;2023-04-24T07:01:06;2.70;;;2.37;;
25331;SDS011;13284;52.748;13.452;2023-04-24T07:03:32;3.07;;;2.07;;
25331;SDS011;13284;52.748;13.452;2023-04-24T07:05:57;2.63;;;2.43;;
25331;SDS011;13284;52.748;13.452;2023-04-24T07:08:23;2.07;;;1.87;;
25331;SDS011;13284;52.748;13.452;2023-04-24T07:10:49;2.10;;;1.90;;
25331;SDS011;13284;52.748;13.452;2023-04-24T07:13:15;1.87;;;1.63;;
25331;SDS011;13284;52.748;13.452;2023-04-24T07:15:41;1.50;;;1.40;;
25331;SDS011;13284;52.748;13.452;2023-04-24T07:18:07;1.90;;;1.57;;
25331;SDS011;13284;52.748;13.452;2023-04-24T07:20:32;2.50;;;2.10;;
25331;SDS011;13284;52.748;13.452;2023-04-24T07:22:58;1.53;;;1.30;;
25331;SDS011;13284;52.748;13.452;2023-04-24T07:25:23;1.60;;;1.50;;
25331;SDS011;13284;52.748;13.452;2023-04-24T07:27:49;2.97;;;1.90;;
25331;SDS011;13284;52.748;13.452;2023-04-24T07:30:15;2.67;;;1.47;;
25331;SDS011;13284;52.748;13.452;2023-04-24T07:32:40;2.00;;;1.60;;
25331;SDS011;13284;52.748;13.452;2023-04-24T07:35:06;1.50;;;1.40;;
25331;SDS011;13284;52.748;13.452;2023-04-24T07:37:32;1.80;;;1.33;;
25331;SDS011;13284;52.748;13.452;2023-04-24T07:39:57;1.60;;;1.50;;
25331;SDS011;13284;52.748;13.452;2023-04-24T07:42:23;1.83;;;1.60;;
25331;SDS011;13284;52.748;13.452;2023-04-24T07:44:49;1.50;;;1.40;;
25331;SDS011;13284;52.748;13.452;2023-04-24T07:47:14;1.33;;;1.20;;
25331;SDS011;13284;52.748;13.452;2023-04-24T07:49:43;1.43;;;1.07;;
25331;SDS011;13284;52.748;13.452;2023-04-24T07:52:09;1.37;;;1.27;;
25331;SDS011;13284;52.748;13.452;2023-04-24T07:54:34;1.20;;;1.10;;
25331;SDS011;13284;52.748;13.452;2023-04-24T07:57:00;1.37;;;1.13;;
25331;SDS011;13284;52.748;13.452;2023-04-24T07:59:26;3.80;;;2.77;;
25331;SDS011;13284;52.748;13.452;2023-04-24T08:01:53;2.77;;;1.27;;
25331;SDS011;13284;52.748;13.452;2023-04-24T08:04:19;0.80;;;0.80;;
25331;SDS011;13284;52.748;13.452;2023-04-24T08:06:45;3.00;;;0.93;;
25331;SDS011;13284;52.748;13.452;2023-04-24T08:09:12;0.97;;;0.90;;
25331;SDS011;13284;52.748;13.452;2023-04-24T08:11:37;0.73;;;0.73;;
25331;SDS011;13284;52.748;13.452;2023-04-24T08:14:03;0.87;;;0.80;;
25331;SDS011;13284;52.748;13.452;2023-04-24T08:16:28;2.00;;;0.70;;
25331;SDS011;13284;52.748;13.452;2023-04-24T08:18:54;0.50;;;0.50;;
25331;SDS011;13284;52.748;13.452;2023-04-24T08:21:19;1.53;;;0.70;;
25331;SDS011;13284;52.748;13.452;2023-04-24T08:23:45;0.70;;;0.57;;
25331;SDS011;13284;52.748;13.452;2023-04-24T08:26:11;1.37;;;1.27;;
25331;SDS011;13284;52.748;13.452;2023-04-24T08:28:38;2.87;;;0.60;;
25331;SDS011;13284;52.748;13.452;2023-04-24T08:31:04;1.30;;;0.70;;
25331;SDS011;13284;52.748;13.452;2023-04-24T08:33:30;0.93;;;0.83;;
25331;SDS011;13284;52.748;13.452;2023-04-24T08:35:59;0.70;;;0.70;;
25331;SDS011;13284;52.748;13.452;2023-04-24T08:38:27;0.83;;;0.60;;
25331;SDS011;13284;52.748;13.452;2023-04-24T08:40:52;0.80;;;0.80;;
25331;SDS011;13284;52.748;13.452;2023-04-24T08:43:18;1.70;;;1.00;;
25331;SDS011;13284;52.748;13.452;2023-04-24T08:45:46;0.60;;;0.60;;
25331;SDS011;13284;52.748;13.452;2023-04-24T08:48:12;0.93;;;0.70;;
25331;SDS011;13284;52.748;13.452;2023-04-24T08:50:38;0.80;;;0.80;;
25331;SDS011;13284;52.748;13.452;2023-04-24T08:53:07;0.90;;;0.90;;
25331;SDS011;13284;52.748;13.452;2023-04-24T08:55:33;1.30;;;0.60;;
25331;SDS011;13284;52.748;13.452;2023-04-24T08:57:59;0.90;;;0.90;;
25331;SDS011;13284;52.748;13.452;2023-04-24T09:00:42;0.50;;;0.50;;
25331;SDS011;13284;52.748;13.452;2023-04-24T09:03:11;0.50;;;0.50;;
25331;SDS011;13284;52.748;13.452;2023-04-24T09:05:40;0.50;;;0.50;;
25331;SDS011;13284;52.748;13.452;2023-04-24T09:08:10;0.60;;;0.57;;
25331;SDS011;13284;52.748;13.452;2023-04-24T09:10:38;0.40;;;0.40;;
25331;SDS011;13284;52.748;13.452;2023-04-24T09:13:05;0.73;;;0.73;;
25331;SDS011;13284;52.748;13.452;2023-04-24T09:15:34;0.97;;;0.77;;
25331;SDS011;13284;52.748;13.452;2023-04-24T09:17:59;0.73;;;0.73;;
25331;SDS011;13284;52.748;13.452;2023-04-24T09:20:27;0.67;;;0.60;;
25331;SDS011;13284;52.748;13.452;2023-04-24T09:22:56;1.40;;;0.60;;
25331;SDS011;13284;52.748;13.452;2023-04-24T09:25:23;1.30;;;0.80;;
25331;SDS011;13284;52.748;13.452;2023-04-24T09:28:00;1.43;;;1.33;;
25331;SDS011;13284;52.748;13.452;2023-04-24T09:30:26;0.50;;;0.50;;
25331;SDS011;13284;52.748;13.452;2023-04-24T09:33:12;1.60;;;0.50;;
25331;SDS011;13284;52.748;13.452;2023-04-24T09:35:41;0.60;;;0.60;;
25331;SDS011;13284;52.748;13.452;2023-04-24T09:38:08;0.80;;;0.60;;
25331;SDS011;13284;52.748;13.452;2023-04-24T09:40:34;0.60;;;0.50;;
25331;SDS011;13284;52.748;13.452;2023-04-24T09:43:00;0.90;;;0.70;;
25331;SDS011;13284;52.748;13.452;2023-04-24T09:45:35;0.80;;;0.70;;
25331;SDS011;13284;52.748;13.452;2023-04-24T09:48:03;1.40;;;1.13;;
25331;SDS011;13284;52.748;13.452;2023-04-24T09:50:31;0.60;;;0.60;;
25331;SDS011;13284;52.748;13.452;2023-04-24T09:52:58;0.70;;;0.60;;
25331;SDS011;13284;52.748;13.452;2023-04-24T09:55:26;0.60;;;0.60;;
25331;SDS011;13284;52.748;13.452;2023-04-24T09:57:54;1.70;;;0.97;;
25331;SDS011;13284;52.748;13.452;2023-04-24T10:00:22;0.80;;;0.80;;
25331;SDS011;13284;52.748;13.452;2023-04-24T10:02:58;0.90;;;0.50;;
25331;SDS011;13284;52.748;13.452;2023-04-24T10:05:37;0.83;;;0.60;;
25331;SDS011;13284;52.748;13.452;2023-04-24T10:08:07;0.97;;;0.70;;
25331;SDS011;13284;52.748;13.452;2023-04-24T10:10:34;0.80;;;0.80;;
25331;SDS011;13284;52.748;13.452;2023-04-24T10:13:03;0.60;;;0.60;;
25331;SDS011;13284;52.748;13.452;2023-04-24T10:15:29;3.00;;;2.57;;
25331;SDS011;13284;52.748;13.452;2023-04-24T10:17:55;1.00;;;0.70;;
25331;SDS011;13284;52.748;13.452;2023-04-24T10:20:27;0.53;;;0.50;;
25331;SDS011;13284;52.748;13.452;2023-04-24T10:22:55;1.20;;;0.80;;
25331;SDS011;13284;52.748;13.452;2023-04-24T10:25:23;1.90;;;0.80;;
25331;SDS011;13284;52.748;13.452;2023-04-24T10:27:50;0.90;;;0.90;;
25331;SDS011;13284;52.748;13.452;2023-04-24T10:30:18;0.77;;;0.77;;
25331;SDS011;13284;52.748;13.452;2023-04-24T10:32:45;1.17;;;1.07;;
25331;SDS011;13284;52.748;13.452;2023-04-24T10:35:11;1.33;;;1.10;;
25331;SDS011;13284;52.748;13.452;2023-04-24T10:37:54;1.00;;;0.90;;
25331;SDS011;13284;52.748;13.452;2023-04-24T10:40:35;0.87;;;0.80;;
25331;SDS011;13284;52.748;13.452;2023-04-24T10:43:04;1.10;;;0.93;;
25331;SDS011;13284;52.748;13.452;2023-04-24T10:45:33;2.63;;;0.90;;
25331;SDS011;13284;52.748;13.452;2023-04-24T10:47:59;3.80;;;0.83;;
25331;SDS011;13284;52.748;13.452;2023-04-24T10:50:27;0.70;;;0.70;;
25331;SDS011;13284;52.748;13.452;2023-04-24T10:53:05;1.10;;;1.00;;
25331;SDS011;13284;52.748;13.452;2023-04-24T10:55:45;2.30;;;1.00;;
25331;SDS011;13284;52.748;13.452;2023-04-24T10:58:12;1.30;;;1.20;;
25331;SDS011;13284;52.748;13.452;2023-04-24T11:00:40;1.10;;;1.00;;
25331;SDS011;13284;52.748;13.452;2023-04-24T11:03:06;0.90;;;0.90;;
25331;SDS011;13284;52.748;13.452;2023-04-24T11:05:50;1.50;;;1.30;;
25331;SDS011;13284;52.748;13.452;2023-04-24T11:08:43;0.90;;;0.90;;
25331;SDS011;13284;52.748;13.452;2023-04-24T11:19:05;1.10;;;1.00;;
25331;SDS011;13284;52.748;13.452;2023-04-24T11:21:47;1.83;;;0.90;;
25331;SDS011;13284;52.748;13.452;2023-04-24T11:24:39;1.43;;;0.83;;
25331;SDS011;13284;52.748;13.452;2023-04-24T11:29:48;1.57;;;0.80;;
25331;SDS011;13284;52.748;13.452;2023-04-24T11:32:34;1.50;;;1.40;;
25331;SDS011;13284;52.748;13.452;2023-04-24T11:35:16;1.23;;;0.90;;
25331;SDS011;13284;52.748;13.452;2023-04-24T11:37:42;1.33;;;1.00;;
25331;SDS011;13284;52.748;13.452;2023-04-24T11:40:14;0.80;;;0.70;;
25331;SDS011;13284;52.748;13.452;2023-04-24T11:42:42;1.50;;;1.00;;
25331;SDS011;13284;52.748;13.452;2023-04-24T11:45:13;2.23;;;0.97;;
25331;SDS011;13284;52.748;13.452;2023-04-24T11:47:39;1.33;;;0.60;;
25331;SDS011;13284;52.748;13.452;2023-04-24T11:50:06;1.17;;;0.57;;
25331;SDS011;13284;52.748;13.452;2023-04-24T11:52:37;0.90;;;0.70;;
25331;SDS011;13284;52.748;13.452;2023-04-24T11:55:03;0.73;;;0.73;;
25331;SDS011;13284;52.748;13.452;2023-04-24T11:57:29;1.13;;;0.80;;
25331;SDS011;13284;52.748;13.452;2023-04-24T11:59:59;0.90;;;0.80;;
25331;SDS011;13284;52.748;13.452;2023-04-24T12:02:26;0.50;;;0.50;;
25331;SDS011;13284;52.748;13.452;2023-04-24T12:04:55;0.60;;;0.60;;
25331;SDS011;13284;52.748;13.452;2023-04-24T12:07:21;0.70;;;0.70;;
25331;SDS011;13284;52.748;13.452;2023-04-24T12:09:55;2.00;;;0.90;;
25331;SDS011;13284;52.748;13.452;2023-04-24T12:12:24;0.80;;;0.70;;
25331;SDS011;13284;52.748;13.452;2023-04-24T12:14:58;1.43;;;1.33;;
25331;SDS011;13284;52.748;13.452;2023-04-24T12:17:31;1.43;;;0.90;;
25331;SDS011;13284;52.748;13.452;2023-04-24T12:20:02;0.93;;;0.90;;
25331;SDS011;13284;52.748;13.452;2023-04-24T12:22:49;1.60;;;0.90;;
25331;SDS011;13284;52.748;13.452;2023-04-24T12:25:19;1.40;;;0.83;;
25331;SDS011;13284;52.748;13.452;2023-04-24T12:27:47;0.83;;;0.83;;
25331;SDS011;13284;52.748;13.452;2023-04-24T12:30:33;0.70;;;0.70;;
25331;SDS011;13284;52.748;13.452;2023-04-24T12:33:07;1.00;;;0.70;;
25331;SDS011;13284;52.748;13.452;2023-04-24T12:35:33;0.70;;;0.70;;
25331;SDS011;13284;52.748;13.452;2023-04-24T12:38:07;1.00;;;0.90;;
25331;SDS011;13284;52.748;13.452;2023-04-24T12:40:37;1.40;;;0.87;;
25331;SDS011;13284;52.748;13.452;2023-04-24T12:43:12;0.83;;;0.83;;
25331;SDS011;13284;52.748;13.452;2023-04-24T12:45:39;4.00;;;0.90;;
25331;SDS011;13284;52.748;13.452;2023-04-24T12:48:04;1.17;;;1.00;;
25331;SDS011;13284;52.748;13.452;2023-04-24T12:50:30;1.20;;;1.10;;
25331;SDS011;13284;52.748;13.452;2023-04-24T12:52:56;2.40;;;1.27;;
25331;SDS011;13284;52.748;13.452;2023-04-24T12:55:21;1.10;;;1.00;;
25331;SDS011;13284;52.748;13.452;2023-04-24T12:57:47;2.50;;;1.67;;
25331;SDS011;13284;52.748;13.452;2023-04-24T13:00:12;1.37;;;1.00;;
25331;SDS011;13284;52.748;13.452;2023-04-24T13:02:38;1.27;;;1.20;;
25331;SDS011;13284;52.748;13.452;2023-04-24T13:05:04;3.50;;;1.47;;
25331;SDS011;13284;52.748;13.452;2023-04-24T13:07:30;1.77;;;1.10;;
25331;SDS011;13284;52.748;13.452;2023-04-24T13:09:56;1.97;;;1.50;;
25331;SDS011;13284;52.748;13.452;2023-04-24T13:12:22;2.00;;;1.30;;
25331;SDS011;13284;52.748;13.452;2023-04-24T13:14:49;3.50;;;1.87;;
25331;SDS011;13284;52.748;13.452;2023-04-24T13:17:14;4.90;;;1.90;;
25331;SDS011;13284;52.748;13.452;2023-04-24T13:19:40;1.90;;;1.70;;
25331;SDS011;13284;52.748;13.452;2023-04-24T13:22:08;1.20;;;1.10;;
25331;SDS011;13284;52.748;13.452;2023-04-24T13:24:35;1.03;;;0.97;;
25331;SDS011;13284;52.748;13.452;2023-04-24T13:27:02;1.10;;;1.03;;
25331;SDS011;13284;52.748;13.452;2023-04-24T13:29:27;4.87;;;1.20;;
25331;SDS011;13284;52.748;13.452;2023-04-24T13:31:53;1.10;;;1.00;;
25331;SDS011;13284;52.748;13.452;2023-04-24T13:34:20;1.10;;;1.00;;
25331;SDS011;13284;52.748;13.452;2023-04-24T13:36:46;1.27;;;1.17;;
25331;SDS011;13284;52.748;13.452;2023-04-24T13:39:11;1.30;;;1.20;;
25331;SDS011;13284;52.748;13.452;2023-04-24T13:41:37;1.50;;;1.40;;
25331;SDS011;13284;52.748;13.452;2023-04-24T13:44:03;1.67;;;1.50;;
25331;SDS011;13284;52.748;13.452;2023-04-24T13:46:29;1.40;;;1.30;;
25331;SDS011;13284;52.748;13.452;2023-04-24T13:48:55;2.90;;;1.70;;
25331;SDS011;13284;52.748;13.452;2023-04-24T13:51:21;1.90;;;1.43;;
25331;SDS011;13284;52.748;13.452;2023-04-24T13:53:48;1.40;;;1.30;;
25331;SDS011;13284;52.748;13.452;2023-04-24T13:56:13;1.50;;;1.40;;
25331;SDS011;13284;52.748;13.452;2023-04-24T13:58:42;1.50;;;1.17;;
25331;SDS011;13284;52.748;13.452;2023-04-24T14:01:07;1.40;;;1.30;;
25331;SDS011;13284;52.748;13.452;2023-04-24T14:03:45;1.67;;;1.33;;
25331;SDS011;13284;52.748;13.452;2023-04-24T14:06:11;1.73;;;1.63;;
25331;SDS011;13284;52.748;13.452;2023-04-24T14:08:36;2.00;;;1.70;;
25331;SDS011;13284;52.748;13.452;2023-04-24T14:11:02;1.27;;;1.13;;
25331;SDS011;13284;52.748;13.452;2023-04-24T14:13:27;1.80;;;1.03;;
25331;SDS011;13284;52.748;13.452;2023-04-24T14:15:56;1.03;;;0.93;;
25331;SDS011;13284;52.748;13.452;2023-04-24T14:18:22;1.30;;;1.20;;
25331;SDS011;13284;52.748;13.452;2023-04-24T14:20:48;1.80;;;1.37;;
25331;SDS011;13284;52.748;13.452;2023-04-24T14:23:13;1.30;;;1.20;;
25331;SDS011;13284;52.748;13.452;2023-04-24T14:25:39;1.30;;;1.20;;
25331;SDS011;13284;52.748;13.452;2023-04-24T14:28:05;2.13;;;1.93;;
25331;SDS011;13284;52.748;13.452;2023-04-24T14:30:31;1.43;;;1.33;;
25331;SDS011;13284;52.748;13.452;2023-04-24T14:32:57;1.20;;;1.10;;
25331;SDS011;13284;52.748;13.452;2023-04-24T14:35:22;2.30;;;1.30;;
25331;SDS011;13284;52.748;13.452;2023-04-24T14:37:48;2.13;;;1.50;;
25331;SDS011;13284;52.748;13.452;2023-04-24T14:40:14;0.90;;;0.90;;
25331;SDS011;13284;52.748;13.452;2023-04-24T14:42:40;2.00;;;1.10;;